Time;durP1;ratioP1;P1;durP2;ratioP2;P2;SDS_P1;SDS_P2;PMS_P1;PMS_P2;Temp;Humidity;BMP_temperature;BMP_pressure;BME280_temperature;BME280_humidity;BME280_pressure;Samples;Min_cycle;Max_cycle;Signal;HPM_P1;HPM_P2
2023/03/14 00:02:14;;;;;;;;;;;;;;;;;;5046252;28;19956;-55
2023/03/14 00:04:40;;;;;;;;;;;;;;;;;;5046168;28;19932;-54
2023/03/14 00:07:06;;;;;;;;;;;;;;;;;;5045037;28;19925;-54
2023/03/14 00:09:32;;;;;;;;;;;;;;;;;;5046030;28;20286;-55
2023/03/14 00:11:58;;;;;;;;;;;;;;;;;;5046530;28;19925;-55
2023/03/14 00:14:24;;;;;;;;;;;;;;;;;;5045958;28;19928;-54
2023/03/14 00:16:50;;;;;;;;;;;;;;;;;;5046286;28;19925;-55
2023/03/14 00:19:16;;;;;;;;;;;;;;;;;;5045756;28;20397;-55
2023/03/14 00:21:42;;;;;;;;;;;;;;;;;;5045473;28;20071;-55
2023/03/14 00:24:08;;;;;;;;;;;;;;;;;;5045689;28;20082;-55
2023/03/14 00:26:34;;;;;;;;;;;;;;;;;;5046159;28;19925;-54
2023/03/14 00:29:00;;;;;;;;;;;;;;;;;;5046139;28;19925;-54
2023/03/14 00:31:26;;;;;;;;;;;;;;;;;;5045360;28;20417;-54
2023/03/14 00:33:52;;;;;;;;;;;;;;;;;;5046054;28;19925;-54
2023/03/14 00:36:20;;;;;;;;;;;;;;;;;;5045102;28;20525;-54
2023/03/14 00:38:46;;;;;;;;;;;;;;;;;;5045309;28;20745;-54
2023/03/14 00:41:12;;;;;;;;;;;;;;;;;;5043993;28;20295;-54
2023/03/14 00:43:38;;;;;;;;;;;;;;;;;;5045836;28;19931;-54
2023/03/14 00:46:04;;;;;;;;;;;;;;;;;;5045340;28;19925;-52
2023/03/14 00:48:30;;;;;;;;;;;;;;;;;;5044512;28;20441;-54
2023/03/14 00:50:56;;;;;;;;;;;;;;;;;;5045233;28;20344;-54
2023/03/14 00:53:22;;;;;;;;;;;;;;;;;;5045610;28;19979;-54
2023/03/14 00:55:48;;;;;;;;;;;;;;;;;;5045774;28;19928;-53
2023/03/14 00:58:14;;;;;;;;;;;;;;;;;;5045762;28;19924;-54
2023/03/14 01:00:40;;;;;;;;;;;;;;;;;;5044661;28;19939;-54
2023/03/14 01:03:06;;;;;;;;;;;;;;;;;;5044784;28;20008;-54
2023/03/14 01:05:32;;;;;;;;;;;;;;;;;;5045570;28;20891;-54
2023/03/14 01:07:58;;;;;;;;;;;;;;;;;;5044805;28;20425;-54
2023/03/14 01:10:24;;;;;;;;;;;;;;;;;;5045173;28;19974;-54
2023/03/14 01:12:50;;;;;;;;;;;;;;;;;;5045322;28;19971;-54
2023/03/14 01:15:16;;;;;;;;;;;;;;;;;;5044747;28;19936;-54
2023/03/14 01:17:42;;;;;;;;;;;;;;;;;;5045025;28;19925;-54
2023/03/14 01:20:09;;;;;;;;;;;;;;;;;;5043697;28;19931;-54
2023/03/14 01:22:35;;;;;;;;;;;;;;;;;;5044796;28;19928;-54
2023/03/14 01:25:01;;;;;;;;;;;;;;;;;;5044999;28;19925;-54
2023/03/14 01:27:27;;;;;;;;;;;;;;;;;;5044826;28;19925;-54
2023/03/14 01:29:53;;;;;;;;;;;;;;;;;;5045390;28;20460;-55
2023/03/14 01:32:19;;;;;;;;;;;;;;;;;;5044601;28;19929;-54
2023/03/14 01:34:45;;;;;;;;;;;;;;;;;;5044903;28;19947;-55
2023/03/14 01:37:11;;;;;;;;;;;;;;;;;;5044158;28;20275;-55
2023/03/14 01:39:37;;;;;;;;;;;;;;;;;;5044706;28;20447;-55
2023/03/14 01:42:03;;;;;;;;;;;;;;;;;;5044383;28;19974;-54
2023/03/14 01:44:29;;;;;;;;;;;;;;;;;;5044962;28;19935;-55
2023/03/14 01:46:55;;;;;;;;;;;;;;;;;;5045147;28;20283;-55
2023/03/14 01:49:21;;;;;;;;;;;;;;;;;;5045023;28;19932;-55
2023/03/14 01:51:47;;;;;;;;;;;;;;;;;;5043903;28;19935;-55
2023/03/14 01:54:13;;;;;;;;;;;;;;;;;;5044966;28;20000;-54
2023/03/14 01:56:39;;;;;;;;;;;;;;;;;;5043656;28;19931;-55
2023/03/14 01:59:05;;;;;;;;;;;;;;;;;;5043857;28;20378;-55
2023/03/14 02:01:31;;;;;;;;;;;;;;;;;;5044185;28;19925;-55
2023/03/14 02:03:57;;;;;;;;;;;;;;;;;;5044710;28;19929;-55
2023/03/14 02:06:23;;;;;;;;;;;;;;;;;;5043967;28;19936;-55
2023/03/14 02:08:49;;;;;;;;;;;;;;;;;;5044430;28;19925;-55
2023/03/14 02:11:15;;;;;;;;;;;;;;;;;;5044289;28;19929;-55
2023/03/14 02:13:41;;;;;;;;;;;;;;;;;;5118817;22;20174;-55
2023/03/14 02:16:07;;;;;;;;;;;;;;;;;;5060471;28;20396;-55
2023/03/14 02:18:33;;;;;;;;;;;;;;;;;;5063882;28;19968;-55
2023/03/14 02:20:59;;;;;;;;;;;;;;;;;;5063554;28;20270;-55
2023/03/14 02:23:25;;;;;;;;;;;;;;;;;;5046475;28;19924;-55
2023/03/14 02:25:51;;;;;;;;;;;;;;;;;;5050680;28;19925;-55
2023/03/14 02:28:17;;;;;;;;;;;;;;;;;;5063807;28;20391;-55
2023/03/14 02:30:43;;;;;;;;;;;;;;;;;;5066195;28;20388;-55
2023/03/14 02:33:09;;;;;;;;;;;;;;;;;;5068004;28;19925;-55
2023/03/14 02:35:35;;;;;;;;;;;;;;;;;;5067133;28;19928;-55
2023/03/14 02:38:01;;;;;;;;;;;;;;;;;;5068151;28;20301;-55
2023/03/14 02:40:27;;;;;;;;;;;;;;;;;;5068163;28;19925;-55
2023/03/14 02:42:53;;;;;;;;;;;;;;;;;;5036555;28;19994;-55
2023/03/14 02:45:19;;;;;;;;;;;;;;;;;;5067792;28;19925;-55
2023/03/14 02:47:46;;;;;;;;;;;;;;;;;;5067491;28;19929;-55
2023/03/14 02:50:12;;;;;;;;;;;;;;;;;;5067872;28;20019;-55
2023/03/14 02:52:38;;;;;;;;;;;;;;;;;;5066736;28;20393;-55
2023/03/14 02:55:04;;;;;;;;;;;;;;;;;;5067062;28;20397;-55
2023/03/14 02:57:30;;;;;;;;;;;;;;;;;;5068326;28;20025;-55
2023/03/14 02:59:56;;;;;;;;;;;;;;;;;;5067811;28;19924;-55
2023/03/14 03:02:22;;;;;;;;;;;;;;;;;;5068129;28;20293;-55
2023/03/14 03:04:48;;;;;;;;;;;;;;;;;;5067648;28;19925;-55
2023/03/14 03:07:14;;;;;;;;;;;;;;;;;;5065574;28;19976;-55
2023/03/14 03:09:40;;;;;;;;;;;;;;;;;;5067464;28;20418;-55
2023/03/14 03:12:06;;;;;;;;;;;;;;;;;;5063742;28;19970;-54
2023/03/14 03:14:32;;;;;;;;;;;;;;;;;;5052322;28;19929;-55
2023/03/14 03:16:58;;;;;;;;;;;;;;;;;;5059738;28;20381;-55
2023/03/14 03:19:24;;;;;;;;;;;;;;;;;;5048885;28;19971;-55
2023/03/14 03:21:50;;;;;;;;;;;;;;;;;;5046993;28;19940;-55
2023/03/14 03:24:16;;;;;;;;;;;;;;;;;;5063480;28;20094;-55
2023/03/14 03:26:42;;;;;;;;;;;;;;;;;;5058678;28;20352;-55
2023/03/14 03:29:08;;;;;;;;;;;;;;;;;;5061647;28;19924;-54
2023/03/14 03:31:34;;;;;;;;;;;;;;;;;;5067221;28;20024;-55
2023/03/14 03:34:00;;;;;;;;;;;;;;;;;;5066580;28;20167;-55
2023/03/14 03:36:26;;;;;;;;;;;;;;;;;;5066071;28;19932;-55
2023/03/14 03:38:52;;;;;;;;;;;;;;;;;;5067415;28;19931;-55
2023/03/14 03:41:18;;;;;;;;;;;;;;;;;;5065781;28;20389;-54
2023/03/14 03:43:44;;;;;;;;;;;;;;;;;;5058629;28;19925;-54
2023/03/14 03:46:10;;;;;;;;;;;;;;;;;;5060969;28;20344;-55
2023/03/14 03:48:36;;;;;;;;;;;;;;;;;;5067013;28;19932;-55
2023/03/14 03:51:02;;;;;;;;;;;;;;;;;;5066310;28;19949;-54
2023/03/14 03:53:28;;;;;;;;;;;;;;;;;;5066506;28;19924;-55
2023/03/14 03:55:54;;;;;;;;;;;;;;;;;;5067232;28;19924;-53
2023/03/14 03:58:20;;;;;;;;;;;;;;;;;;5067043;28;20396;-54
2023/03/14 04:00:46;;;;;;;;;;;;;;;;;;5066775;28;19932;-55
2023/03/14 04:03:12;;;;;;;;;;;;;;;;;;5066318;28;19932;-55
2023/03/14 04:05:38;;;;;;;;;;;;;;;;;;5066079;28;20097;-54
2023/03/14 04:08:04;;;;;;;;;;;;;;;;;;5066226;28;19925;-54
2023/03/14 04:10:30;;;;;;;;;;;;;;;;;;5066165;28;20292;-55
2023/03/14 04:12:56;;;;;;;;;;;;;;;;;;5066209;28;20346;-54
2023/03/14 04:15:22;;;;;;;;;;;;;;;;;;5065971;28;19924;-55
2023/03/14 04:17:48;;;;;;;;;;;;;;;;;;5058695;28;19931;-55
2023/03/14 04:20:14;;;;;;;;;;;;;;;;;;5058908;28;20703;-55
2023/03/14 04:22:40;;;;;;;;;;;;;;;;;;5066016;28;19991;-55
2023/03/14 04:25:06;;;;;;;;;;;;;;;;;;5065409;28;20293;-55
2023/03/14 04:27:32;;;;;;;;;;;;;;;;;;5066144;28;19978;-58
2023/03/14 04:29:58;;;;;;;;;;;;;;;;;;5066154;28;19920;-58
2023/03/14 04:32:24;;;;;;;;;;;;;;;;;;5065907;28;20388;-58
2023/03/14 04:34:50;;;;;;;;;;;;;;;;;;5065853;28;19921;-58
2023/03/14 04:37:16;;;;;;;;;;;;;;;;;;5064708;28;20301;-57
2023/03/14 04:39:42;;;;;;;;;;;;;;;;;;5065577;28;19925;-58
2023/03/14 04:42:08;;;;;;;;;;;;;;;;;;5065299;28;19927;-58
2023/03/14 04:44:34;;;;;;;;;;;;;;;;;;5065772;28;19924;-58
2023/03/14 04:47:00;;;;;;;;;;;;;;;;;;5065602;28;20114;-58
2023/03/14 04:49:26;;;;;;;;;;;;;;;;;;5065381;28;19924;-57
2023/03/14 04:51:52;;;;;;;;;;;;;;;;;;5065436;28;19974;-58
2023/03/14 04:54:18;;;;;;;;;;;;;;;;;;5064080;28;19986;-58
2023/03/14 04:56:44;;;;;;;;;;;;;;;;;;5065465;28;19960;-58
2023/03/14 04:59:10;;;;;;;;;;;;;;;;;;5065536;28;20390;-57
2023/03/14 05:01:36;;;;;;;;;;;;;;;;;;5065369;28;19924;-58
2023/03/14 05:04:02;;;;;;;;;;;;;;;;;;5065196;28;19924;-58
2023/03/14 05:06:28;;;;;;;;;;;;;;;;;;5064443;28;19932;-57
2023/03/14 05:08:54;;;;;;;;;;;;;;;;;;5065617;28;19928;-58
2023/03/14 05:11:20;;;;;;;;;;;;;;;;;;5065352;28;19925;-57
2023/03/14 05:13:46;;;;;;;;;;;;;;;;;;5064423;28;20005;-58
2023/03/14 05:16:12;;;;;;;;;;;;;;;;;;5064593;28;19977;-57
2023/03/14 05:18:38;;;;;;;;;;;;;;;;;;5064380;28;20005;-57
2023/03/14 05:21:04;;;;;;;;;;;;;;;;;;5064262;28;19925;-57
2023/03/14 05:23:30;;;;;;;;;;;;;;;;;;5064951;28;19924;-57
2023/03/14 05:25:56;;;;;;;;;;;;;;;;;;5064559;28;19932;-57
2023/03/14 05:28:22;;;;;;;;;;;;;;;;;;5065199;28;19976;-58
2023/03/14 05:30:48;;;;;;;;;;;;;;;;;;5065200;28;20017;-58
2023/03/14 05:33:14;;;;;;;;;;;;;;;;;;5064563;28;20739;-58
2023/03/14 05:35:40;;;;;;;;;;;;;;;;;;5063820;28;19932;-57
2023/03/14 05:38:06;;;;;;;;;;;;;;;;;;5064573;28;19920;-57
2023/03/14 05:40:32;;;;;;;;;;;;;;;;;;5065246;28;19977;-57
2023/03/14 05:42:58;;;;;;;;;;;;;;;;;;5063836;28;19920;-58
2023/03/14 05:45:24;;;;;;;;;;;;;;;;;;5059114;28;19939;-59
2023/03/14 05:47:50;;;;;;;;;;;;;;;;;;5057258;28;19935;-58
2023/03/14 05:50:16;;;;;;;;;;;;;;;;;;5058951;28;20386;-55
2023/03/14 05:52:42;;;;;;;;;;;;;;;;;;5054886;28;19925;-56
2023/03/14 05:55:08;;;;;;;;;;;;;;;;;;5059154;28;19948;-55
2023/03/14 05:57:34;;;;;;;;;;;;;;;;;;5055937;28;19936;-56
2023/03/14 06:00:00;;;;;;;;;;;;;;;;;;5060141;28;20301;-56
2023/03/14 06:02:26;;;;;;;;;;;;;;;;;;5046218;28;19928;-55
2023/03/14 06:04:52;;;;;;;;;;;;;;;;;;5047874;28;19936;-50
2023/03/14 06:07:18;;;;;;;;;;;;;;;;;;5059258;28;19947;-57
2023/03/14 06:09:44;;;;;;;;;;;;;;;;;;5056568;28;20566;-57
2023/03/14 06:12:10;;;;;;;;;;;;;;;;;;5052228;28;19928;-57
2023/03/14 06:14:36;;;;;;;;;;;;;;;;;;5056383;28;19964;-57
2023/03/14 06:17:02;;;;;;;;;;;;;;;;;;5065659;28;20429;-57
2023/03/14 06:19:28;;;;;;;;;;;;;;;;;;5068319;28;19963;-57
2023/03/14 06:21:54;;;;;;;;;;;;;;;;;;5066266;28;19983;-57
2023/03/14 06:24:21;;;;;;;;;;;;;;;;;;5064317;28;19931;-57
2023/03/14 06:26:47;;;;;;;;;;;;;;;;;;5058917;28;19924;-57
2023/03/14 06:29:13;;;;;;;;;;;;;;;;;;5059917;28;19932;-57
2023/03/14 06:31:39;;;;;;;;;;;;;;;;;;5055263;28;19924;-57
2023/03/14 06:34:05;;;;;;;;;;;;;;;;;;5058103;28;20298;-57
2023/03/14 06:36:31;;;;;;;;;;;;;;;;;;5068020;28;19924;-57
2023/03/14 06:38:57;;;;;;;;;;;;;;;;;;5067503;28;19925;-57
2023/03/14 06:41:25;;;;;;;;;;;;;;;;;;5063900;28;19924;-57
2023/03/14 06:43:51;;;;;;;;;;;;;;;;;;5059022;28;19925;-57
2023/03/14 06:46:17;;;;;;;;;;;;;;;;;;5059693;28;19932;-57
2023/03/14 06:48:43;;;;;;;;;;;;;;;;;;5056466;28;20020;-57
2023/03/14 06:51:09;;;;;;;;;;;;;;;;;;5065942;28;20293;-57
2023/03/14 06:53:36;;;;;;;;;;;;;;;;;;5031988;28;20016;-56
2023/03/14 06:56:02;;;;;;;;;;;;;;;;;;5065850;28;19921;-57
2023/03/14 06:58:28;;;;;;;;;;;;;;;;;;5066829;28;20348;-58
2023/03/14 07:00:54;;;;;;;;;;;;;;;;;;5063137;28;20378;-57
2023/03/14 07:03:20;;;;;;;;;;;;;;;;;;5065135;28;19920;-57
2023/03/14 07:05:46;;;;;;;;;;;;;;;;;;5066894;28;19986;-57
2023/03/14 07:08:12;;;;;;;;;;;;;;;;;;5060345;28;19929;-57
2023/03/14 07:10:38;;;;;;;;;;;;;;;;;;5057299;28;19924;-57
2023/03/14 07:13:04;;;;;;;;;;;;;;;;;;5058489;28;19929;-57
2023/03/14 07:15:30;;;;;;;;;;;;;;;;;;5058222;28;19939;-57
2023/03/14 07:17:56;;;;;;;;;;;;;;;;;;5065880;28;20349;-57
2023/03/14 07:20:23;;;;;;;;;;;;;;;;;;5066969;28;20008;-57
2023/03/14 07:22:49;;;;;;;;;;;;;;;;;;5067694;28;19924;-57
2023/03/14 07:25:15;;;;;;;;;;;;;;;;;;5067324;28;20069;-57
2023/03/14 07:27:41;;;;;;;;;;;;;;;;;;5067357;28;19925;-58
2023/03/14 07:30:07;;;;;;;;;;;;;;;;;;5066631;28;19932;-57
2023/03/14 07:32:33;;;;;;;;;;;;;;;;;;5066889;28;20588;-57
2023/03/14 07:34:59;;;;;;;;;;;;;;;;;;5066469;28;19925;-57
2023/03/14 07:37:25;;;;;;;;;;;;;;;;;;5067027;28;19924;-55
2023/03/14 07:39:51;;;;;;;;;;;;;;;;;;5067664;28;20400;-57
2023/03/14 07:42:17;;;;;;;;;;;;;;;;;;5066660;28;19925;-57
2023/03/14 07:44:43;;;;;;;;;;;;;;;;;;5049004;28;20306;-57
2023/03/14 07:47:09;;;;;;;;;;;;;;;;;;5067118;28;19932;-57
2023/03/14 07:49:35;;;;;;;;;;;;;;;;;;5066220;28;19931;-57
2023/03/14 07:52:01;;;;;;;;;;;;;;;;;;5066711;28;19932;-57
2023/03/14 07:54:27;;;;;;;;;;;;;;;;;;5066632;28;20304;-57
2023/03/14 07:56:53;;;;;;;;;;;;;;;;;;5067087;28;20301;-57
2023/03/14 07:59:19;;;;;;;;;;;;;;;;;;5066366;28;20492;-57
2023/03/14 08:01:45;;;;;;;;;;;;;;;;;;5066630;28;19928;-57
2023/03/14 08:04:11;;;;;;;;;;;;;;;;;;5066370;28;19931;-57
2023/03/14 08:06:37;;;;;;;;;;;;;;;;;;5065908;28;20292;-57
2023/03/14 08:09:03;;;;;;;;;;;;;;;;;;5066534;28;20378;-57
2023/03/14 08:11:29;;;;;;;;;;;;;;;;;;5066081;28;19920;-57
2023/03/14 08:13:55;;;;;;;;;;;;;;;;;;5065733;28;19932;-57
2023/03/14 08:16:21;;;;;;;;;;;;;;;;;;5066330;28;19924;-56
2023/03/14 08:18:47;;;;;;;;;;;;;;;;;;5066666;28;19924;-57
2023/03/14 08:21:13;;;;;;;;;;;;;;;;;;5065485;28;19931;-57
2023/03/14 08:23:39;;;;;;;;;;;;;;;;;;5066142;28;20413;-57
2023/03/14 08:26:05;;;;;;;;;;;;;;;;;;5065835;28;19925;-57
2023/03/14 08:28:33;;;;;;;;;;;;;;;;;;5065512;28;19998;-57
2023/03/14 08:30:59;;;;;;;;;;;;;;;;;;5065309;28;19964;-57
2023/03/14 08:33:25;;;;;;;;;;;;;;;;;;5066180;28;19928;-56
2023/03/14 08:35:51;;;;;;;;;;;;;;;;;;5065588;28;20371;-57
2023/03/14 08:38:17;;;;;;;;;;;;;;;;;;5065713;28;19978;-57
2023/03/14 08:40:43;;;;;;;;;;;;;;;;;;5065857;28;19925;-57
2023/03/14 08:43:09;;;;;;;;;;;;;;;;;;5065638;28;20267;-57
2023/03/14 08:45:35;;;;;;;;;;;;;;;;;;5065671;28;20464;-57
2023/03/14 08:48:01;;;;;;;;;;;;;;;;;;5065458;28;19971;-57
2023/03/14 08:50:27;;;;;;;;;;;;;;;;;;5064672;28;20027;-57
2023/03/14 08:52:53;;;;;;;;;;;;;;;;;;5065878;28;20496;-57
2023/03/14 08:55:19;;;;;;;;;;;;;;;;;;5065352;28;19924;-57
2023/03/14 08:57:45;;;;;;;;;;;;;;;;;;5065646;28;19928;-57
2023/03/14 09:00:14;;;;;;;;;;;;;;;;;;5065141;28;19935;-57
2023/03/14 09:02:40;;;;;;;;;;;;;;;;;;5065509;28;20293;-57
2023/03/14 09:05:06;;;;;;;;;;;;;;;;;;5064296;28;20511;-57
2023/03/14 09:07:32;;;;;;;;;;;;;;;;;;5065276;28;20003;-57
2023/03/14 09:10:00;;;;;;;;;;;;;;;;;;5064955;28;21336;-57
2023/03/14 09:12:26;;;;;;;;;;;;;;;;;;5064974;28;20536;-57
2023/03/14 09:14:52;;;;;;;;;;;;;;;;;;5065107;28;19924;-57
2023/03/14 09:17:18;;;;;;;;;;;;;;;;;;5065034;28;19931;-57
2023/03/14 09:19:44;;;;;;;;;;;;;;;;;;5064524;28;20001;-57
2023/03/14 09:22:10;;;;;;;;;;;;;;;;;;5064883;28;19972;-57
2023/03/14 09:24:36;;;;;;;;;;;;;;;;;;5065433;28;20423;-57
2023/03/14 09:27:02;;;;;;;;;;;;;;;;;;5064500;28;19925;-57
2023/03/14 09:29:28;;;;;;;;;;;;;;;;;;5064909;28;19971;-57
2023/03/14 09:31:54;;;;;;;;;;;;;;;;;;5065828;28;19972;-57
2023/03/14 09:34:20;;;;;;;;;;;;;;;;;;5064393;28;19925;-56
2023/03/14 09:36:46;;;;;;;;;;;;;;;;;;5065124;28;19925;-57
2023/03/14 09:39:12;;;;;;;;;;;;;;;;;;5064318;28;20378;-57
2023/03/14 09:41:38;;;;;;;;;;;;;;;;;;5064886;28;19925;-56
2023/03/14 09:44:04;;;;;;;;;;;;;;;;;;5064759;28;19924;-56
2023/03/14 09:46:30;;;;;;;;;;;;;;;;;;5064744;28;19924;-57
2023/03/14 09:48:56;;;;;;;;;;;;;;;;;;5065220;28;20007;-57
2023/03/14 09:51:23;;;;;;;;;;;;;;;;;;5064767;28;19924;-57
2023/03/14 09:53:49;;;;;;;;;;;;;;;;;;5064900;28;19969;-57
2023/03/14 09:56:15;;;;;;;;;;;;;;;;;;5064781;28;19932;-56
2023/03/14 09:58:41;;;;;;;;;;;;;;;;;;5064951;28;19924;-57
2023/03/14 10:01:07;;;;;;;;;;;;;;;;;;5064513;28;19924;-56
2023/03/14 10:03:33;;;;;;;;;;;;;;;;;;5065066;28;20305;-57
2023/03/14 10:05:59;;;;;;;;;;;;;;;;;;5063497;28;19925;-57
2023/03/14 10:08:25;;;;;;;;;;;;;;;;;;5064434;28;19925;-56
2023/03/14 10:10:52;;;;;;;;;;;;;;;;;;5065200;28;20301;-57
2023/03/14 10:13:18;;;;;;;;;;;;;;;;;;5064477;28;19931;-57
2023/03/14 10:15:44;;;;;;;;;;;;;;;;;;5064692;28;19928;-57
2023/03/14 10:18:12;;;;;;;;;;;;;;;;;;5064694;28;20301;-57
2023/03/14 10:20:38;;;;;;;;;;;;;;;;;;5045887;28;20415;-57
2023/03/14 10:23:04;;;;;;;;;;;;;;;;;;5064328;28;19929;-56
2023/03/14 10:25:30;;;;;;;;;;;;;;;;;;5063632;28;19925;-56
2023/03/14 10:27:56;;;;;;;;;;;;;;;;;;5064795;28;20013;-57
2023/03/14 10:30:22;;;;;;;;;;;;;;;;;;5064934;28;19968;-57
2023/03/14 10:32:48;;;;;;;;;;;;;;;;;;5064354;28;20412;-57
2023/03/14 10:35:14;;;;;;;;;;;;;;;;;;5063548;28;20075;-57
2023/03/14 10:37:40;;;;;;;;;;;;;;;;;;5064503;28;19931;-57
2023/03/14 10:40:07;;;;;;;;;;;;;;;;;;5064072;28;20596;-56
2023/03/14 10:42:34;;;;;;;;;;;;;;;;;;5064462;28;19924;-57
2023/03/14 10:45:00;;;;;;;;;;;;;;;;;;5064147;28;19924;-57
2023/03/14 10:47:27;;;;;;;;;;;;;;;;;;5064252;28;20288;-56
2023/03/14 10:49:53;;;;;;;;;;;;;;;;;;5045775;28;19931;-57
2023/03/14 10:52:22;;;;;;;;;;;;;;;;;;5066739;28;19972;-57
2023/03/14 10:54:48;;;;;;;;;;;;;;;;;;5068102;28;19920;-57
2023/03/14 10:57:14;;;;;;;;;;;;;;;;;;5067691;28;20733;-57
2023/03/14 10:59:40;;;;;;;;;;;;;;;;;;5067880;28;19928;-57
2023/03/14 11:02:06;;;;;;;;;;;;;;;;;;5067383;28;19920;-57
2023/03/14 11:04:32;;;;;;;;;;;;;;;;;;5066625;28;20298;-57
2023/03/14 11:06:58;;;;;;;;;;;;;;;;;;5067824;28;20413;-57
2023/03/14 11:09:24;;;;;;;;;;;;;;;;;;5067923;28;19928;-57
2023/03/14 11:11:50;;;;;;;;;;;;;;;;;;5067876;28;20405;-57
2023/03/14 11:14:16;;;;;;;;;;;;;;;;;;5066886;28;20033;-57
2023/03/14 11:16:42;;;;;;;;;;;;;;;;;;5067438;28;20306;-57
2023/03/14 11:19:08;;;;;;;;;;;;;;;;;;5066172;28;19920;-56
2023/03/14 11:21:34;;;;;;;;;;;;;;;;;;5067308;28;19958;-55
2023/03/14 11:24:00;;;;;;;;;;;;;;;;;;5067027;28;20275;-57
2023/03/14 11:26:26;;;;;;;;;;;;;;;;;;5067191;28;19930;-56
2023/03/14 11:28:52;;;;;;;;;;;;;;;;;;5067666;28;20119;-57
2023/03/14 11:31:18;;;;;;;;;;;;;;;;;;5067009;28;20066;-57
2023/03/14 11:33:45;;;;;;;;;;;;;;;;;;5067202;28;20589;-57
2023/03/14 11:36:10;;;;;;;;;;;;;;;;;;5065788;28;19971;-56
2023/03/14 11:38:36;;;;;;;;;;;;;;;;;;5067255;28;19972;-57
2023/03/14 11:41:03;;;;;;;;;;;;;;;;;;5066787;28;19924;-57
2023/03/14 11:43:29;;;;;;;;;;;;;;;;;;5065994;28;19928;-56
2023/03/14 11:45:55;;;;;;;;;;;;;;;;;;5057949;28;19948;-53
2023/03/14 11:48:21;;;;;;;;;;;;;;;;;;5057752;28;19993;-57
2023/03/14 11:50:47;;;;;;;;;;;;;;;;;;5052328;28;19976;-57
2023/03/14 11:53:13;;;;;;;;;;;;;;;;;;5059404;28;19924;-57
2023/03/14 11:55:39;;;;;;;;;;;;;;;;;;5064113;28;20366;-57
2023/03/14 11:58:05;;;;;;;;;;;;;;;;;;5055625;28;20011;-57
2023/03/14 12:00:31;;;;;;;;;;;;;;;;;;5049186;28;19925;-57
2023/03/14 12:02:57;;;;;;;;;;;;;;;;;;5047095;28;20420;-57
2023/03/14 12:05:23;;;;;;;;;;;;;;;;;;5051772;28;19925;-57
2023/03/14 12:07:49;;;;;;;;;;;;;;;;;;5064656;28;19928;-56
2023/03/14 12:10:15;;;;;;;;;;;;;;;;;;5045269;28;20687;-57
2023/03/14 12:12:41;;;;;;;;;;;;;;;;;;5058010;28;20378;-57
2023/03/14 12:15:07;;;;;;;;;;;;;;;;;;5061878;28;19932;-58
2023/03/14 12:17:33;;;;;;;;;;;;;;;;;;5065593;28;19944;-57
2023/03/14 12:19:59;;;;;;;;;;;;;;;;;;5064926;28;20400;-57
2023/03/14 12:22:25;;;;;;;;;;;;;;;;;;5065781;28;20019;-53
2023/03/14 12:24:51;;;;;;;;;;;;;;;;;;5066656;28;20018;-57
2023/03/14 12:27:17;;;;;;;;;;;;;;;;;;5065903;28;20033;-57
2023/03/14 12:29:43;;;;;;;;;;;;;;;;;;5066252;28;20396;-57
2023/03/14 12:32:09;;;;;;;;;;;;;;;;;;5065061;28;20011;-58
2023/03/14 12:34:35;;;;;;;;;;;;;;;;;;5049571;28;19987;-58
2023/03/14 12:37:01;;;;;;;;;;;;;;;;;;5039990;28;19979;-58
2023/03/14 12:39:27;;;;;;;;;;;;;;;;;;5034531;28;19925;-59
2023/03/14 12:41:53;;;;;;;;;;;;;;;;;;5048179;28;19948;-58
2023/03/14 12:44:19;;;;;;;;;;;;;;;;;;5049727;28;19931;-58
2023/03/14 12:46:45;;;;;;;;;;;;;;;;;;5052389;28;20232;-58
2023/03/14 12:49:11;;;;;;;;;;;;;;;;;;5052551;28;19924;-58
2023/03/14 12:51:37;;;;;;;;;;;;;;;;;;5052078;28;19924;-58
2023/03/14 12:54:03;;;;;;;;;;;;;;;;;;5055345;28;19931;-58
2023/03/14 12:56:29;;;;;;;;;;;;;;;;;;5049934;28;19925;-58
2023/03/14 12:58:55;;;;;;;;;;;;;;;;;;5047915;28;20309;-58
2023/03/14 13:01:21;;;;;;;;;;;;;;;;;;5049913;28;19925;-58
2023/03/14 13:03:47;;;;;;;;;;;;;;;;;;5046439;28;20315;-58
2023/03/14 13:06:13;;;;;;;;;;;;;;;;;;5047575;28;19928;-58
2023/03/14 13:08:39;;;;;;;;;;;;;;;;;;5049824;28;19947;-58
2023/03/14 13:11:05;;;;;;;;;;;;;;;;;;5047332;28;19928;-58
2023/03/14 13:13:31;;;;;;;;;;;;;;;;;;5049480;28;19924;-58
2023/03/14 13:15:59;;;;;;;;;;;;;;;;;;5053431;28;19928;-58
2023/03/14 13:18:26;;;;;;;;;;;;;;;;;;5065265;28;19948;-58
2023/03/14 13:20:52;;;;;;;;;;;;;;;;;;5064196;28;20409;-58
2023/03/14 13:23:18;;;;;;;;;;;;;;;;;;5064766;28;19925;-59
2023/03/14 13:25:44;;;;;;;;;;;;;;;;;;5065003;28;19939;-58
2023/03/14 13:28:10;;;;;;;;;;;;;;;;;;5062840;28;20533;-59
2023/03/14 13:30:36;;;;;;;;;;;;;;;;;;5061548;28;19928;-59
2023/03/14 13:33:02;;;;;;;;;;;;;;;;;;5064219;28;19925;-59
2023/03/14 13:35:28;;;;;;;;;;;;;;;;;;5055036;28;20591;-59
2023/03/14 13:37:54;;;;;;;;;;;;;;;;;;5065197;28;20475;-59
2023/03/14 13:40:20;;;;;;;;;;;;;;;;;;5065405;28;19931;-59
2023/03/14 13:42:46;;;;;;;;;;;;;;;;;;5062869;28;19932;-58
2023/03/14 13:45:12;;;;;;;;;;;;;;;;;;5054393;28;20067;-58
2023/03/14 13:47:38;;;;;;;;;;;;;;;;;;5059609;28;19951;-59
2023/03/14 13:50:04;;;;;;;;;;;;;;;;;;5064622;28;19928;-57
2023/03/14 13:52:30;;;;;;;;;;;;;;;;;;5065506;28;20278;-58
2023/03/14 13:54:56;;;;;;;;;;;;;;;;;;5065152;28;20003;-58
2023/03/14 13:57:22;;;;;;;;;;;;;;;;;;5063453;28;19932;-59
2023/03/14 13:59:48;;;;;;;;;;;;;;;;;;5060796;28;19924;-58
2023/03/14 14:02:14;;;;;;;;;;;;;;;;;;5062622;28;19928;-58
2023/03/14 14:04:40;;;;;;;;;;;;;;;;;;5060180;28;19931;-59
2023/03/14 14:07:06;;;;;;;;;;;;;;;;;;5062706;28;20122;-59
2023/03/14 14:09:32;;;;;;;;;;;;;;;;;;5061304;28;19925;-59
2023/03/14 14:11:58;;;;;;;;;;;;;;;;;;5062739;28;20008;-58
2023/03/14 14:14:24;;;;;;;;;;;;;;;;;;5062328;28;19929;-59
2023/03/14 14:16:50;;;;;;;;;;;;;;;;;;5065665;28;19924;-59
2023/03/14 14:19:16;;;;;;;;;;;;;;;;;;5060295;28;19947;-58
2023/03/14 14:21:42;;;;;;;;;;;;;;;;;;5061319;28;19928;-58
2023/03/14 14:24:08;;;;;;;;;;;;;;;;;;5058295;28;19924;-58
2023/03/14 14:26:34;;;;;;;;;;;;;;;;;;5062776;28;20400;-57
2023/03/14 14:29:00;;;;;;;;;;;;;;;;;;5066818;28;19933;-57
2023/03/14 14:31:26;;;;;;;;;;;;;;;;;;5066639;28;19960;-58
2023/03/14 14:33:52;;;;;;;;;;;;;;;;;;5062344;28;20378;-57
2023/03/14 14:36:18;;;;;;;;;;;;;;;;;;5065242;28;19921;-57
2023/03/14 14:38:44;;;;;;;;;;;;;;;;;;5064968;28;19931;-57
2023/03/14 14:41:10;;;;;;;;;;;;;;;;;;5066079;28;19924;-58
2023/03/14 14:43:36;;;;;;;;;;;;;;;;;;5065929;28;19925;-58
2023/03/14 14:46:03;;;;;;;;;;;;;;;;;;5063762;28;19931;-57
2023/03/14 14:48:29;;;;;;;;;;;;;;;;;;5067178;28;19931;-58
2023/03/14 14:50:57;;;;;;;;;;;;;;;;;;5061302;28;20044;-57
2023/03/14 14:53:24;;;;;;;;;;;;;;;;;;5066528;28;20330;-58
2023/03/14 14:55:50;;;;;;;;;;;;;;;;;;5061663;28;20400;-58
2023/03/14 14:58:16;;;;;;;;;;;;;;;;;;5065965;28;19924;-57
2023/03/14 15:00:42;;;;;;;;;;;;;;;;;;5065450;28;19960;-57
2023/03/14 15:03:08;;;;;;;;;;;;;;;;;;5063958;28;19924;-57
2023/03/14 15:05:36;;;;;;;;;;;;;;;;;;5048777;28;20296;-57
2023/03/14 15:08:02;;;;;;;;;;;;;;;;;;5064656;28;19930;-58
2023/03/14 15:10:28;;;;;;;;;;;;;;;;;;5061671;28;19933;-58
2023/03/14 15:12:54;;;;;;;;;;;;;;;;;;5060634;28;19928;-58
2023/03/14 15:15:20;;;;;;;;;;;;;;;;;;5064923;28;19924;-58
2023/03/14 15:17:46;;;;;;;;;;;;;;;;;;5067043;28;20019;-58
2023/03/14 15:20:13;;;;;;;;;;;;;;;;;;5066261;28;19924;-57
2023/03/14 15:22:39;;;;;;;;;;;;;;;;;;5066564;28;19925;-58
2023/03/14 15:25:05;;;;;;;;;;;;;;;;;;5066380;28;19932;-58
2023/03/14 15:27:31;;;;;;;;;;;;;;;;;;5065557;28;19924;-58
2023/03/14 15:29:57;;;;;;;;;;;;;;;;;;5067016;28;19925;-58
2023/03/14 15:32:23;;;;;;;;;;;;;;;;;;5066760;28;20329;-58
2023/03/14 15:34:49;;;;;;;;;;;;;;;;;;5065894;28;19932;-58
2023/03/14 15:37:15;;;;;;;;;;;;;;;;;;5065389;28;19928;-58
2023/03/14 15:39:41;;;;;;;;;;;;;;;;;;5066074;28;20305;-58
2023/03/14 15:42:07;;;;;;;;;;;;;;;;;;5065875;28;20377;-57
2023/03/14 15:44:33;;;;;;;;;;;;;;;;;;5062288;28;19923;-57
2023/03/14 15:46:59;;;;;;;;;;;;;;;;;;5066550;28;19924;-57
2023/03/14 15:49:25;;;;;;;;;;;;;;;;;;5065084;28;20306;-58
2023/03/14 15:51:51;;;;;;;;;;;;;;;;;;5066656;28;19925;-58
2023/03/14 15:54:17;;;;;;;;;;;;;;;;;;5065943;28;19978;-58
2023/03/14 15:56:43;;;;;;;;;;;;;;;;;;5066057;28;19928;-58
2023/03/14 15:59:09;;;;;;;;;;;;;;;;;;5065940;28;19925;-58
2023/03/14 16:01:35;;;;;;;;;;;;;;;;;;5066092;28;20287;-57
2023/03/14 16:04:02;;;;;;;;;;;;;;;;;;5064887;28;20452;-58
2023/03/14 16:06:28;;;;;;;;;;;;;;;;;;5065745;28;19924;-58
2023/03/14 16:08:54;;;;;;;;;;;;;;;;;;5066521;28;20370;-58
2023/03/14 16:11:20;;;;;;;;;;;;;;;;;;5065783;28;19924;-58
2023/03/14 16:13:46;;;;;;;;;;;;;;;;;;5065041;28;20297;-58
2023/03/14 16:16:12;;;;;;;;;;;;;;;;;;5064771;28;20389;-59
2023/03/14 16:18:38;;;;;;;;;;;;;;;;;;5064181;28;19932;-59
2023/03/14 16:21:05;;;;;;;;;;;;;;;;;;5059457;28;19932;-58
2023/03/14 16:23:31;;;;;;;;;;;;;;;;;;5064776;28;19925;-58
2023/03/14 16:25:57;;;;;;;;;;;;;;;;;;5061537;28;19974;-59
2023/03/14 16:28:23;;;;;;;;;;;;;;;;;;5062711;28;19928;-59
2023/03/14 16:30:49;;;;;;;;;;;;;;;;;;5058707;28;19991;-59
2023/03/14 16:33:15;;;;;;;;;;;;;;;;;;5061355;28;19932;-58
2023/03/14 16:35:41;;;;;;;;;;;;;;;;;;5063895;28;19986;-59
2023/03/14 16:38:07;;;;;;;;;;;;;;;;;;5065172;28;19928;-59